Time;durP1;ratioP1;P1;durP2;ratioP2;P2;SDS_P1;SDS_P2;PMS_P1;PMS_P2;Temp;Humidity;BMP_temperature;BMP_pressure;BME280_temperature;BME280_humidity;BME280_pressure;Samples;Min_cycle;Max_cycle;Signal;HPM_P1;HPM_P2
2020/06/25 00:00:35;;;;;;;3.7;2.6;;;;;;;16.3;58.21973;95561.44;;;;
2020/06/25 00:01:41;;;;;;;3.7;2.6;;;;;;;16.3;58.21973;95561.44;;;;
2020/06/25 00:02:41;;;;;;;3.7;2.6;;;;;;;16.3;58.21973;95561.44;;;;
2020/06/25 00:03:42;;;;;;;3.7;2.6;;;;;;;16.3;58.21973;95561.44;;;;
2020/06/25 00:04:42;;;;;;;3.7;2.6;;;;;;;16.3;58.21973;95561.44;;;;
2020/06/25 00:05:43;;;;;;;3.7;2.6;;;;;;;16.3;58.21973;95561.44;;;;
2020/06/25 00:06:43;;;;;;;3.7;2.6;;;;;;;16.3;58.21973;95561.44;;;;
2020/06/25 00:07:44;;;;;;;3.7;2.6;;;;;;;16.3;58.21973;95561.44;;;;
2020/06/25 00:08:44;;;;;;;3.7;2.6;;;;;;;16.3;58.21973;95561.44;;;;
2020/06/25 00:09:44;;;;;;;3.7;2.6;;;;;;;16.3;58.21973;95561.44;;;;
2020/06/25 00:10:45;;;;;;;4.05;2.7;;;;;;;16.28;58.87207;95552.17;;;;
2020/06/25 00:11:46;;;;;;;4.05;2.7;;;;;;;16.28;58.87207;95552.17;;;;
2020/06/25 00:12:48;;;;;;;4.05;2.7;;;;;;;16.28;58.87207;95552.17;;;;
2020/06/25 00:13:48;;;;;;;4.05;2.7;;;;;;;16.28;58.87207;95552.17;;;;
2020/06/25 00:14:48;;;;;;;4.05;2.7;;;;;;;16.28;58.87207;95552.17;;;;
2020/06/25 00:15:49;;;;;;;4.05;2.7;;;;;;;16.28;58.87207;95552.17;;;;
2020/06/25 00:16:49;;;;;;;4.05;2.7;;;;;;;16.28;58.87207;95552.17;;;;
2020/06/25 00:17:50;;;;;;;4.05;2.7;;;;;;;16.28;58.87207;95552.17;;;;
2020/06/25 00:18:51;;;;;;;4.05;2.7;;;;;;;16.28;58.87207;95552.17;;;;
2020/06/25 00:19:51;;;;;;;4.05;2.7;;;;;;;16.28;58.87207;95552.17;;;;
2020/06/25 00:20:51;;;;;;;3.3;2.75;;;;;;;16.22;59.2334;95548.33;;;;
2020/06/25 00:21:52;;;;;;;3.3;2.75;;;;;;;16.22;59.2334;95548.33;;;;
2020/06/25 00:22:53;;;;;;;3.3;2.75;;;;;;;16.22;59.2334;95548.33;;;;
2020/06/25 00:23:54;;;;;;;3.3;2.75;;;;;;;16.22;59.2334;95548.33;;;;
2020/06/25 00:24:55;;;;;;;3.3;2.75;;;;;;;16.22;59.2334;95548.33;;;;
2020/06/25 00:25:55;;;;;;;3.3;2.75;;;;;;;16.22;59.2334;95548.33;;;;
2020/06/25 00:26:56;;;;;;;3.3;2.75;;;;;;;16.22;59.2334;95548.33;;;;
2020/06/25 00:27:56;;;;;;;3.3;2.75;;;;;;;16.22;59.2334;95548.33;;;;
2020/06/25 00:28:57;;;;;;;3.3;2.75;;;;;;;16.22;59.2334;95548.33;;;;
2020/06/25 00:29:57;;;;;;;3.3;2.75;;;;;;;16.22;59.2334;95548.33;;;;
2020/06/25 00:30:58;;;;;;;3.3;2.75;;;;;;;16.22;59.2334;95548.33;;;;
2020/06/25 00:31:58;;;;;;;3.25;2.6;;;;;;;16.19;59.7959;95543.42;;;;
2020/06/25 00:32:59;;;;;;;3.25;2.6;;;;;;;16.19;59.7959;95543.42;;;;
2020/06/25 00:33:59;;;;;;;3.25;2.6;;;;;;;16.19;59.7959;95543.42;;;;
2020/06/25 00:35:00;;;;;;;3.25;2.6;;;;;;;16.19;59.7959;95543.42;;;;
2020/06/25 00:36:01;;;;;;;3.25;2.6;;;;;;;16.19;59.7959;95543.42;;;;
2020/06/25 00:37:01;;;;;;;3.25;2.6;;;;;;;16.19;59.7959;95543.42;;;;
2020/06/25 00:38:02;;;;;;;3.25;2.6;;;;;;;16.19;59.7959;95543.42;;;;
2020/06/25 00:39:02;;;;;;;3.25;2.6;;;;;;;16.19;59.7959;95543.42;;;;
2020/06/25 00:40:04;;;;;;;3.25;2.6;;;;;;;16.19;59.7959;95543.42;;;;
2020/06/25 00:41:08;;;;;;;3.25;2.6;;;;;;;16.19;59.7959;95543.42;;;;
2020/06/25 00:42:08;;;;;;;4.1;2.75;;;;;;;16.03;60.31934;95527.93;;;;
2020/06/25 00:43:09;;;;;;;4.1;2.75;;;;;;;16.03;60.31934;95527.93;;;;
2020/06/25 00:44:09;;;;;;;4.1;2.75;;;;;;;16.03;60.31934;95527.93;;;;
2020/06/25 00:45:10;;;;;;;4.1;2.75;;;;;;;16.03;60.31934;95527.93;;;;
2020/06/25 00:46:12;;;;;;;4.1;2.75;;;;;;;16.03;60.31934;95527.93;;;;
2020/06/25 00:47:12;;;;;;;4.1;2.75;;;;;;;16.03;60.31934;95527.93;;;;
2020/06/25 00:48:13;;;;;;;4.1;2.75;;;;;;;16.03;60.31934;95527.93;;;;
2020/06/25 00:49:13;;;;;;;4.1;2.75;;;;;;;16.03;60.31934;95527.93;;;;
2020/06/25 00:50:14;;;;;;;4.1;2.75;;;;;;;16.03;60.31934;95527.93;;;;
2020/06/25 00:51:17;;;;;;;4.1;2.75;;;;;;;16.03;60.31934;95527.93;;;;
2020/06/25 00:52:17;;;;;;;4.1;2.75;;;;;;;16.03;60.31934;95527.93;;;;
2020/06/25 00:53:18;;;;;;;3.25;2.95;;;;;;;15.92;61;95513.56;;;;
2020/06/25 00:54:18;;;;;;;3.25;2.95;;;;;;;15.92;61;95513.56;;;;
2020/06/25 00:55:19;;;;;;;3.25;2.95;;;;;;;15.92;61;95513.56;;;;
2020/06/25 00:56:20;;;;;;;3.25;2.95;;;;;;;15.92;61;95513.56;;;;
2020/06/25 00:57:20;;;;;;;3.25;2.95;;;;;;;15.92;61;95513.56;;;;
2020/06/25 00:58:20;;;;;;;3.25;2.95;;;;;;;15.92;61;95513.56;;;;
2020/06/25 00:59:21;;;;;;;3.25;2.95;;;;;;;15.92;61;95513.56;;;;
2020/06/25 01:00:22;;;;;;;3.25;2.95;;;;;;;15.92;61;95513.56;;;;
2020/06/25 01:01:22;;;;;;;3.25;2.95;;;;;;;15.92;61;95513.56;;;;
2020/06/25 01:02:23;;;;;;;3.25;2.95;;;;;;;15.92;61;95513.56;;;;
2020/06/25 01:03:24;;;;;;;4.5;2.9;;;;;;;15.7;61.6748;95512.89;;;;
2020/06/25 01:04:24;;;;;;;4.5;2.9;;;;;;;15.7;61.6748;95512.89;;;;
2020/06/25 01:05:25;;;;;;;4.5;2.9;;;;;;;15.7;61.6748;95512.89;;;;
2020/06/25 01:06:25;;;;;;;4.5;2.9;;;;;;;15.7;61.6748;95512.89;;;;
2020/06/25 01:07:26;;;;;;;4.5;2.9;;;;;;;15.7;61.6748;95512.89;;;;
2020/06/25 01:08:26;;;;;;;4.5;2.9;;;;;;;15.7;61.6748;95512.89;;;;
2020/06/25 01:09:27;;;;;;;4.5;2.9;;;;;;;15.7;61.6748;95512.89;;;;
2020/06/25 01:10:28;;;;;;;4.5;2.9;;;;;;;15.7;61.6748;95512.89;;;;
2020/06/25 01:11:28;;;;;;;4.5;2.9;;;;;;;15.7;61.6748;95512.89;;;;
2020/06/25 01:12:29;;;;;;;4.5;2.9;;;;;;;15.7;61.6748;95512.89;;;;
2020/06/25 01:13:29;;;;;;;4.5;2.9;;;;;;;15.7;61.6748;95512.89;;;;
2020/06/25 01:14:30;;;;;;;3.8;3.2;;;;;;;15.54;62.46777;95486.08;;;;
2020/06/25 01:15:30;;;;;;;3.8;3.2;;;;;;;15.54;62.46777;95486.08;;;;
2020/06/25 01:16:30;;;;;;;3.8;3.2;;;;;;;15.54;62.46777;95486.08;;;;
2020/06/25 01:17:31;;;;;;;3.8;3.2;;;;;;;15.54;62.46777;95486.08;;;;
2020/06/25 01:18:31;;;;;;;3.8;3.2;;;;;;;15.54;62.46777;95486.08;;;;
2020/06/25 01:19:32;;;;;;;3.8;3.2;;;;;;;15.54;62.46777;95486.08;;;;
2020/06/25 01:20:32;;;;;;;3.8;3.2;;;;;;;15.54;62.46777;95486.08;;;;
2020/06/25 01:21:33;;;;;;;3.8;3.2;;;;;;;15.54;62.46777;95486.08;;;;
2020/06/25 01:22:33;;;;;;;3.8;3.2;;;;;;;15.54;62.46777;95486.08;;;;
2020/06/25 01:23:34;;;;;;;3.8;3.2;;;;;;;15.54;62.46777;95486.08;;;;
2020/06/25 01:24:34;;;;;;;4.05;3.2;;;;;;;15.41;63.19824;95487.5;;;;
2020/06/25 01:25:35;;;;;;;4.05;3.2;;;;;;;15.41;63.19824;95487.5;;;;
2020/06/25 01:26:35;;;;;;;4.05;3.2;;;;;;;15.41;63.19824;95487.5;;;;
2020/06/25 01:27:36;;;;;;;4.05;3.2;;;;;;;15.41;63.19824;95487.5;;;;
2020/06/25 01:28:36;;;;;;;4.05;3.2;;;;;;;15.41;63.19824;95487.5;;;;
2020/06/25 01:29:37;;;;;;;4.05;3.2;;;;;;;15.41;63.19824;95487.5;;;;
2020/06/25 01:30:38;;;;;;;4.05;3.2;;;;;;;15.41;63.19824;95487.5;;;;
2020/06/25 01:31:39;;;;;;;4.05;3.2;;;;;;;15.41;63.19824;95487.5;;;;
2020/06/25 01:32:39;;;;;;;4.05;3.2;;;;;;;15.41;63.19824;95487.5;;;;
2020/06/25 01:33:40;;;;;;;4.05;3.2;;;;;;;15.41;63.19824;95487.5;;;;
2020/06/25 01:34:40;;;;;;;4.05;3.2;;;;;;;15.41;63.19824;95487.5;;;;
2020/06/25 01:35:41;;;;;;;3.55;3.25;;;;;;;15.27;63.92676;95473.63;;;;
2020/06/25 01:36:41;;;;;;;3.55;3.25;;;;;;;15.27;63.92676;95473.63;;;;
2020/06/25 01:37:42;;;;;;;3.55;3.25;;;;;;;15.27;63.92676;95473.63;;;;
2020/06/25 01:38:43;;;;;;;3.55;3.25;;;;;;;15.27;63.92676;95473.63;;;;
2020/06/25 01:39:44;;;;;;;3.55;3.25;;;;;;;15.27;63.92676;95473.63;;;;
2020/06/25 01:40:46;;;;;;;3.55;3.25;;;;;;;15.27;63.92676;95473.63;;;;
2020/06/25 01:41:47;;;;;;;3.55;3.25;;;;;;;15.27;63.92676;95473.63;;;;
2020/06/25 01:42:47;;;;;;;3.55;3.25;;;;;;;15.27;63.92676;95473.63;;;;
2020/06/25 01:43:48;;;;;;;3.55;3.25;;;;;;;15.27;63.92676;95473.63;;;;
2020/06/25 01:44:48;;;;;;;3.55;3.25;;;;;;;15.27;63.92676;95473.63;;;;
2020/06/25 01:45:49;;;;;;;4.4;3.45;;;;;;;14.98;64.7959;95473.11;;;;
2020/06/25 01:46:49;;;;;;;4.4;3.45;;;;;;;14.98;64.7959;95473.11;;;;
2020/06/25 01:47:50;;;;;;;4.4;3.45;;;;;;;14.98;64.7959;95473.11;;;;
2020/06/25 01:48:50;;;;;;;4.4;3.45;;;;;;;14.98;64.7959;95473.11;;;;
2020/06/25 01:49:51;;;;;;;4.4;3.45;;;;;;;14.98;64.7959;95473.11;;;;
2020/06/25 01:50:51;;;;;;;4.4;3.45;;;;;;;14.98;64.7959;95473.11;;;;
2020/06/25 01:51:52;;;;;;;4.4;3.45;;;;;;;14.98;64.7959;95473.11;;;;
2020/06/25 01:52:52;;;;;;;4.4;3.45;;;;;;;14.98;64.7959;95473.11;;;;
2020/06/25 01:53:53;;;;;;;4.4;3.45;;;;;;;14.98;64.7959;95473.11;;;;
2020/06/25 01:54:53;;;;;;;4.4;3.45;;;;;;;14.98;64.7959;95473.11;;;;
2020/06/25 01:55:54;;;;;;;4.4;3.45;;;;;;;14.98;64.7959;95473.11;;;;
2020/06/25 01:56:54;;;;;;;4.450001;3.6;;;;;;;14.77;65.7832;95489.34;;;;
2020/06/25 01:57:55;;;;;;;4.450001;3.6;;;;;;;14.77;65.7832;95489.34;;;;
2020/06/25 01:58:55;;;;;;;4.450001;3.6;;;;;;;14.77;65.7832;95489.34;;;;
2020/06/25 01:59:55;;;;;;;4.450001;3.6;;;;;;;14.77;65.7832;95489.34;;;;
2020/06/25 02:00:56;;;;;;;4.450001;3.6;;;;;;;14.77;65.7832;95489.34;;;;
2020/06/25 02:01:56;;;;;;;4.450001;3.6;;;;;;;14.77;65.7832;95489.34;;;;
2020/06/25 02:02:57;;;;;;;4.450001;3.6;;;;;;;14.77;65.7832;95489.34;;;;
2020/06/25 02:03:58;;;;;;;4.450001;3.6;;;;;;;14.77;65.7832;95489.34;;;;
2020/06/25 02:04:58;;;;;;;4.450001;3.6;;;;;;;14.77;65.7832;95489.34;;;;
2020/06/25 02:05:59;;;;;;;4.450001;3.6;;;;;;;14.77;65.7832;95489.34;;;;
2020/06/25 02:06:59;;;;;;;4.25;3.5;;;;;;;14.6;66.625;95488.64;;;;
2020/06/25 02:08:00;;;;;;;4.25;3.5;;;;;;;14.6;66.625;95488.64;;;;
2020/06/25 02:09:00;;;;;;;4.25;3.5;;;;;;;14.6;66.625;95488.64;;;;
2020/06/25 02:10:01;;;;;;;4.25;3.5;;;;;;;14.6;66.625;95488.64;;;;
2020/06/25 02:11:03;;;;;;;4.25;3.5;;;;;;;14.6;66.625;95488.64;;;;
2020/06/25 02:12:03;;;;;;;4.25;3.5;;;;;;;14.6;66.625;95488.64;;;;
2020/06/25 02:13:04;;;;;;;4.25;3.5;;;;;;;14.6;66.625;95488.64;;;;
2020/06/25 02:14:05;;;;;;;4.25;3.5;;;;;;;14.6;66.625;95488.64;;;;
2020/06/25 02:15:05;;;;;;;4.25;3.5;;;;;;;14.6;66.625;95488.64;;;;
2020/06/25 02:16:07;;;;;;;4.25;3.5;;;;;;;14.6;66.625;95488.64;;;;
2020/06/25 02:17:08;;;;;;;4.25;3.5;;;;;;;14.6;66.625;95488.64;;;;
2020/06/25 02:18:08;;;;;;;4.699999;3.8;;;;;;;14.54;67.5127;95492.89;;;;
2020/06/25 02:19:09;;;;;;;4.699999;3.8;;;;;;;14.54;67.5127;95492.89;;;;
2020/06/25 02:20:10;;;;;;;4.699999;3.8;;;;;;;14.54;67.5127;95492.89;;;;
2020/06/25 02:21:10;;;;;;;4.699999;3.8;;;;;;;14.54;67.5127;95492.89;;;;
2020/06/25 02:22:11;;;;;;;4.699999;3.8;;;;;;;14.54;67.5127;95492.89;;;;
2020/06/25 02:23:11;;;;;;;4.699999;3.8;;;;;;;14.54;67.5127;95492.89;;;;
2020/06/25 02:24:12;;;;;;;4.699999;3.8;;;;;;;14.54;67.5127;95492.89;;;;
2020/06/25 02:25:12;;;;;;;4.699999;3.8;;;;;;;14.54;67.5127;95492.89;;;;
2020/06/25 02:26:13;;;;;;;4.699999;3.8;;;;;;;14.54;67.5127;95492.89;;;;
2020/06/25 02:27:13;;;;;;;4.699999;3.8;;;;;;;14.54;67.5127;95492.89;;;;
2020/06/25 02:28:14;;;;;;;5.6;3.95;;;;;;;14.35;68.40332;95473;;;;
2020/06/25 02:29:14;;;;;;;5.6;3.95;;;;;;;14.35;68.40332;95473;;;;
2020/06/25 02:30:14;;;;;;;5.6;3.95;;;;;;;14.35;68.40332;95473;;;;
2020/06/25 02:31:16;;;;;;;5.6;3.95;;;;;;;14.35;68.40332;95473;;;;
2020/06/25 02:32:16;;;;;;;5.6;3.95;;;;;;;14.35;68.40332;95473;;;;
2020/06/25 02:33:17;;;;;;;5.6;3.95;;;;;;;14.35;68.40332;95473;;;;
2020/06/25 02:34:17;;;;;;;5.6;3.95;;;;;;;14.35;68.40332;95473;;;;
2020/06/25 02:35:18;;;;;;;5.6;3.95;;;;;;;14.35;68.40332;95473;;;;
2020/06/25 02:36:18;;;;;;;5.6;3.95;;;;;;;14.35;68.40332;95473;;;;
2020/06/25 02:37:19;;;;;;;5.6;3.95;;;;;;;14.35;68.40332;95473;;;;
2020/06/25 02:38:19;;;;;;;5.6;3.95;;;;;;;14.35;68.40332;95473;;;;
2020/06/25 02:39:20;;;;;;;5.7;4.05;;;;;;;14.26;69.38477;95473.55;;;;
2020/06/25 02:40:20;;;;;;;5.7;4.05;;;;;;;14.26;69.38477;95473.55;;;;
2020/06/25 02:41:21;;;;;;;5.7;4.05;;;;;;;14.26;69.38477;95473.55;;;;
2020/06/25 02:42:22;;;;;;;5.7;4.05;;;;;;;14.26;69.38477;95473.55;;;;
2020/06/25 02:43:22;;;;;;;5.7;4.05;;;;;;;14.26;69.38477;95473.55;;;;
2020/06/25 02:44:23;;;;;;;5.7;4.05;;;;;;;14.26;69.38477;95473.55;;;;
2020/06/25 02:45:23;;;;;;;5.7;4.05;;;;;;;14.26;69.38477;95473.55;;;;
2020/06/25 02:46:24;;;;;;;5.7;4.05;;;;;;;14.26;69.38477;95473.55;;;;
2020/06/25 02:47:24;;;;;;;5.7;4.05;;;;;;;14.26;69.38477;95473.55;;;;
2020/06/25 02:48:25;;;;;;;5.7;4.05;;;;;;;14.26;69.38477;95473.55;;;;
2020/06/25 02:49:25;;;;;;;5.55;4.199999;;;;;;;14.15;70.00391;95463.64;;;;
2020/06/25 02:50:26;;;;;;;5.55;4.199999;;;;;;;14.15;70.00391;95463.64;;;;
2020/06/25 02:51:29;;;;;;;5.55;4.199999;;;;;;;14.15;70.00391;95463.64;;;;
2020/06/25 02:52:30;;;;;;;5.55;4.199999;;;;;;;14.15;70.00391;95463.64;;;;
2020/06/25 02:53:31;;;;;;;5.55;4.199999;;;;;;;14.15;70.00391;95463.64;;;;
2020/06/25 02:54:31;;;;;;;5.55;4.199999;;;;;;;14.15;70.00391;95463.64;;;;
2020/06/25 02:55:32;;;;;;;5.55;4.199999;;;;;;;14.15;70.00391;95463.64;;;;
2020/06/25 02:56:32;;;;;;;5.55;4.199999;;;;;;;14.15;70.00391;95463.64;;;;
2020/06/25 02:57:33;;;;;;;5.55;4.199999;;;;;;;14.15;70.00391;95463.64;;;;
2020/06/25 02:58:34;;;;;;;5.55;4.199999;;;;;;;14.15;70.00391;95463.64;;;;
2020/06/25 02:59:34;;;;;;;5.55;4.199999;;;;;;;14.15;70.00391;95463.64;;;;
2020/06/25 03:00:35;;;;;;;4.4;3.95;;;;;;;14.06;70.79883;95472.36;;;;
2020/06/25 03:01:35;;;;;;;4.4;3.95;;;;;;;14.06;70.79883;95472.36;;;;
2020/06/25 03:02:36;;;;;;;4.4;3.95;;;;;;;14.06;70.79883;95472.36;;;;
2020/06/25 03:03:36;;;;;;;4.4;3.95;;;;;;;14.06;70.79883;95472.36;;;;
2020/06/25 03:04:37;;;;;;;4.4;3.95;;;;;;;14.06;70.79883;95472.36;;;;
2020/06/25 03:05:37;;;;;;;4.4;3.95;;;;;;;14.06;70.79883;95472.36;;;;
2020/06/25 03:06:38;;;;;;;4.4;3.95;;;;;;;14.06;70.79883;95472.36;;;;
2020/06/25 03:07:38;;;;;;;4.4;3.95;;;;;;;14.06;70.79883;95472.36;;;;
2020/06/25 03:08:39;;;;;;;4.4;3.95;;;;;;;14.06;70.79883;95472.36;;;;
2020/06/25 03:09:39;;;;;;;4.4;3.95;;;;;;;14.06;70.79883;95472.36;;;;
2020/06/25 03:10:40;;;;;;;5.950001;4.05;;;;;;;14;71.42676;95472;;;;
2020/06/25 03:11:40;;;;;;;5.950001;4.05;;;;;;;14;71.42676;95472;;;;
2020/06/25 03:12:41;;;;;;;5.950001;4.05;;;;;;;14;71.42676;95472;;;;
2020/06/25 03:13:42;;;;;;;5.950001;4.05;;;;;;;14;71.42676;95472;;;;
2020/06/25 03:14:42;;;;;;;5.950001;4.05;;;;;;;14;71.42676;95472;;;;
2020/06/25 03:15:43;;;;;;;5.950001;4.05;;;;;;;14;71.42676;95472;;;;
2020/06/25 03:16:43;;;;;;;5.950001;4.05;;;;;;;14;71.42676;95472;;;;
2020/06/25 03:17:43;;;;;;;5.950001;4.05;;;;;;;14;71.42676;95472;;;;
2020/06/25 03:18:44;;;;;;;5.950001;4.05;;;;;;;14;71.42676;95472;;;;
2020/06/25 03:19:44;;;;;;;5.950001;4.05;;;;;;;14;71.42676;95472;;;;
2020/06/25 03:20:45;;;;;;;5.950001;4.05;;;;;;;14;71.42676;95472;;;;
2020/06/25 03:21:46;;;;;;;5.099999;4;;;;;;;14.09;71.92676;95465.58;;;;
2020/06/25 03:22:46;;;;;;;5.099999;4;;;;;;;14.09;71.92676;95465.58;;;;
2020/06/25 03:23:46;;;;;;;5.099999;4;;;;;;;14.09;71.92676;95465.58;;;;
2020/06/25 03:24:47;;;;;;;5.099999;4;;;;;;;14.09;71.92676;95465.58;;;;
2020/06/25 03:25:47;;;;;;;5.099999;4;;;;;;;14.09;71.92676;95465.58;;;;
2020/06/25 03:26:48;;;;;;;5.099999;4;;;;;;;14.09;71.92676;95465.58;;;;
2020/06/25 03:27:49;;;;;;;5.099999;4;;;;;;;14.09;71.92676;95465.58;;;;
2020/06/25 03:28:49;;;;;;;5.099999;4;;;;;;;14.09;71.92676;95465.58;;;;
2020/06/25 03:29:50;;;;;;;5.099999;4;;;;;;;14.09;71.92676;95465.58;;;;
2020/06/25 03:30:50;;;;;;;5.099999;4;;;;;;;14.09;71.92676;95465.58;;;;
2020/06/25 03:31:51;;;;;;;5.5;4;;;;;;;13.96;72.44629;95467.19;;;;
2020/06/25 03:32:51;;;;;;;5.5;4;;;;;;;13.96;72.44629;95467.19;;;;
2020/06/25 03:33:52;;;;;;;5.5;4;;;;;;;13.96;72.44629;95467.19;;;;
2020/06/25 03:34:53;;;;;;;5.5;4;;;;;;;13.96;72.44629;95467.19;;;;
2020/06/25 03:35:53;;;;;;;5.5;4;;;;;;;13.96;72.44629;95467.19;;;;
2020/06/25 03:36:54;;;;;;;5.5;4;;;;;;;13.96;72.44629;95467.19;;;;
2020/06/25 03:37:54;;;;;;;5.5;4;;;;;;;13.96;72.44629;95467.19;;;;
2020/06/25 03:38:55;;;;;;;5.5;4;;;;;;;13.96;72.44629;95467.19;;;;
2020/06/25 03:39:55;;;;;;;5.5;4;;;;;;;13.96;72.44629;95467.19;;;;
2020/06/25 03:40:56;;;;;;;5.5;4;;;;;;;13.96;72.44629;95467.19;;;;
2020/06/25 03:41:59;;;;;;;5.5;4;;;;;;;13.96;72.44629;95467.19;;;;
2020/06/25 03:43:00;;;;;;;6;3.95;;;;;;;13.78;73.18262;95463.42;;;;
2020/06/25 03:44:05;;;;;;;6;3.95;;;;;;;13.78;73.18262;95463.42;;;;
2020/06/25 03:45:06;;;;;;;6;3.95;;;;;;;13.78;73.18262;95463.42;;;;
2020/06/25 03:46:09;;;;;;;6;3.95;;;;;;;13.78;73.18262;95463.42;;;;
2020/06/25 03:47:12;;;;;;;6;3.95;;;;;;;13.78;73.18262;95463.42;;;;
2020/06/25 03:48:13;;;;;;;6;3.95;;;;;;;13.78;73.18262;95463.42;;;;
2020/06/25 03:49:17;;;;;;;6;3.95;;;;;;;13.78;73.18262;95463.42;;;;
2020/06/25 03:50:18;;;;;;;6;3.95;;;;;;;13.78;73.18262;95463.42;;;;
2020/06/25 03:51:19;;;;;;;6;3.95;;;;;;;13.78;73.18262;95463.42;;;;
2020/06/25 03:52:20;;;;;;;6;3.95;;;;;;;13.78;73.18262;95463.42;;;;
2020/06/25 03:53:21;;;;;;;4.3;3.9;;;;;;;13.55;74.03809;95481.81;;;;
2020/06/25 03:54:22;;;;;;;4.3;3.9;;;;;;;13.55;74.03809;95481.81;;;;
2020/06/25 03:55:22;;;;;;;4.3;3.9;;;;;;;13.55;74.03809;95481.81;;;;
2020/06/25 03:56:23;;;;;;;4.3;3.9;;;;;;;13.55;74.03809;95481.81;;;;
2020/06/25 03:57:23;;;;;;;4.3;3.9;;;;;;;13.55;74.03809;95481.81;;;;
2020/06/25 03:58:24;;;;;;;4.3;3.9;;;;;;;13.55;74.03809;95481.81;;;;
2020/06/25 03:59:25;;;;;;;4.3;3.9;;;;;;;13.55;74.03809;95481.81;;;;
2020/06/25 04:00:26;;;;;;;4.3;3.9;;;;;;;13.55;74.03809;95481.81;;;;
2020/06/25 04:01:26;;;;;;;4.3;3.9;;;;;;;13.55;74.03809;95481.81;;;;
2020/06/25 04:02:27;;;;;;;4.3;3.9;;;;;;;13.55;74.03809;95481.81;;;;
2020/06/25 04:03:27;;;;;;;4.3;3.9;;;;;;;13.55;74.03809;95481.81;;;;
2020/06/25 04:04:28;;;;;;;6.699999;4.55;;;;;;;13.44;74.66699;95468.64;;;;
2020/06/25 04:05:29;;;;;;;6.699999;4.55;;;;;;;13.44;74.66699;95468.64;;;;
2020/06/25 04:06:29;;;;;;;6.699999;4.55;;;;;;;13.44;74.66699;95468.64;;;;
2020/06/25 04:07:30;;;;;;;6.699999;4.55;;;;;;;13.44;74.66699;95468.64;;;;
2020/06/25 04:08:30;;;;;;;6.699999;4.55;;;;;;;13.44;74.66699;95468.64;;;;
2020/06/25 04:09:31;;;;;;;6.699999;4.55;;;;;;;13.44;74.66699;95468.64;;;;
2020/06/25 04:10:31;;;;;;;6.699999;4.55;;;;;;;13.44;74.66699;95468.64;;;;
2020/06/25 04:11:32;;;;;;;6.699999;4.55;;;;;;;13.44;74.66699;95468.64;;;;
2020/06/25 04:12:33;;;;;;;6.699999;4.55;;;;;;;13.44;74.66699;95468.64;;;;
2020/06/25 04:13:33;;;;;;;6.699999;4.55;;;;;;;13.44;74.66699;95468.64;;;;
2020/06/25 04:14:34;;;;;;;4.900001;4.400001;;;;;;;13.36;75.28613;95472.31;;;;
2020/06/25 04:15:35;;;;;;;4.900001;4.400001;;;;;;;13.36;75.28613;95472.31;;;;
2020/06/25 04:16:35;;;;;;;4.900001;4.400001;;;;;;;13.36;75.28613;95472.31;;;;
2020/06/25 04:17:36;;;;;;;4.900001;4.400001;;;;;;;13.36;75.28613;95472.31;;;;
2020/06/25 04:18:37;;;;;;;4.900001;4.400001;;;;;;;13.36;75.28613;95472.31;;;;
2020/06/25 04:19:37;;;;;;;4.900001;4.400001;;;;;;;13.36;75.28613;95472.31;;;;
2020/06/25 04:20:38;;;;;;;4.900001;4.400001;;;;;;;13.36;75.28613;95472.31;;;;
2020/06/25 04:21:40;;;;;;;4.900001;4.400001;;;;;;;13.36;75.28613;95472.31;;;;
2020/06/25 04:22:40;;;;;;;4.900001;4.400001;;;;;;;13.36;75.28613;95472.31;;;;
2020/06/25 04:23:41;;;;;;;4.900001;4.400001;;;;;;;13.36;75.28613;95472.31;;;;
2020/06/25 04:24:41;;;;;;;4.900001;4.400001;;;;;;;13.36;75.28613;95472.31;;;;
2020/06/25 04:25:42;;;;;;;5.35;4.45;;;;;;;13.43;75.91211;95471.08;;;;
2020/06/25 04:26:43;;;;;;;5.35;4.45;;;;;;;13.43;75.91211;95471.08;;;;
2020/06/25 04:27:43;;;;;;;5.35;4.45;;;;;;;13.43;75.91211;95471.08;;;;
2020/06/25 04:28:44;;;;;;;5.35;4.45;;;;;;;13.43;75.91211;95471.08;;;;
2020/06/25 04:29:44;;;;;;;5.35;4.45;;;;;;;13.43;75.91211;95471.08;;;;
2020/06/25 04:30:45;;;;;;;5.35;4.45;;;;;;;13.43;75.91211;95471.08;;;;
2020/06/25 04:31:45;;;;;;;5.35;4.45;;;;;;;13.43;75.91211;95471.08;;;;
2020/06/25 04:32:46;;;;;;;5.35;4.45;;;;;;;13.43;75.91211;95471.08;;;;
2020/06/25 04:33:46;;;;;;;5.35;4.45;;;;;;;13.43;75.91211;95471.08;;;;
2020/06/25 04:34:47;;;;;;;5.35;4.45;;;;;;;13.43;75.91211;95471.08;;;;
2020/06/25 04:35:48;;;;;;;6.099999;4.4;;;;;;;13.59;76.61816;95460.31;;;;
2020/06/25 04:36:48;;;;;;;6.099999;4.4;;;;;;;13.59;76.61816;95460.31;;;;
2020/06/25 04:37:49;;;;;;;6.099999;4.4;;;;;;;13.59;76.61816;95460.31;;;;
2020/06/25 04:38:50;;;;;;;6.099999;4.4;;;;;;;13.59;76.61816;95460.31;;;;
2020/06/25 04:39:50;;;;;;;6.099999;4.4;;;;;;;13.59;76.61816;95460.31;;;;
2020/06/25 04:40:51;;;;;;;6.099999;4.4;;;;;;;13.59;76.61816;95460.31;;;;
2020/06/25 04:41:51;;;;;;;6.099999;4.4;;;;;;;13.59;76.61816;95460.31;;;;
2020/06/25 04:42:52;;;;;;;6.099999;4.4;;;;;;;13.59;76.61816;95460.31;;;;
2020/06/25 04:43:53;;;;;;;6.099999;4.4;;;;;;;13.59;76.61816;95460.31;;;;
2020/06/25 04:44:53;;;;;;;6.099999;4.4;;;;;;;13.59;76.61816;95460.31;;;;
2020/06/25 04:45:54;;;;;;;6.099999;4.4;;;;;;;13.59;76.61816;95460.31;;;;
2020/06/25 04:46:54;;;;;;;4.85;4.35;;;;;;;14.25;76.48535;95470.11;;;;
2020/06/25 04:47:55;;;;;;;4.85;4.35;;;;;;;14.25;76.48535;95470.11;;;;
2020/06/25 04:48:55;;;;;;;4.85;4.35;;;;;;;14.25;76.48535;95470.11;;;;
2020/06/25 04:49:56;;;;;;;4.85;4.35;;;;;;;14.25;76.48535;95470.11;;;;
2020/06/25 04:50:56;;;;;;;4.85;4.35;;;;;;;14.25;76.48535;95470.11;;;;
2020/06/25 04:51:57;;;;;;;4.85;4.35;;;;;;;14.25;76.48535;95470.11;;;;
2020/06/25 04:52:57;;;;;;;4.85;4.35;;;;;;;14.25;76.48535;95470.11;;;;
2020/06/25 04:53:58;;;;;;;4.85;4.35;;;;;;;14.25;76.48535;95470.11;;;;
2020/06/25 04:54:58;;;;;;;4.85;4.35;;;;;;;14.25;76.48535;95470.11;;;;
2020/06/25 04:55:59;;;;;;;4.85;4.35;;;;;;;14.25;76.48535;95470.11;;;;
2020/06/25 04:56:59;;;;;;;7.049999;4.3;;;;;;;14.82;75.98926;95458.26;;;;
2020/06/25 04:58:00;;;;;;;7.049999;4.3;;;;;;;14.82;75.98926;95458.26;;;;
2020/06/25 04:59:00;;;;;;;7.049999;4.3;;;;;;;14.82;75.98926;95458.26;;;;
2020/06/25 05:00:01;;;;;;;7.049999;4.3;;;;;;;14.82;75.98926;95458.26;;;;
2020/06/25 05:01:02;;;;;;;7.049999;4.3;;;;;;;14.82;75.98926;95458.26;;;;
2020/06/25 05:02:03;;;;;;;7.049999;4.3;;;;;;;14.82;75.98926;95458.26;;;;
2020/06/25 05:03:03;;;;;;;7.049999;4.3;;;;;;;14.82;75.98926;95458.26;;;;
2020/06/25 05:04:04;;;;;;;7.049999;4.3;;;;;;;14.82;75.98926;95458.26;;;;
2020/06/25 05:05:04;;;;;;;7.049999;4.3;;;;;;;14.82;75.98926;95458.26;;;;
2020/06/25 05:06:05;;;;;;;7.049999;4.3;;;;;;;14.82;75.98926;95458.26;;;;
2020/06/25 05:07:05;;;;;;;7.049999;4.3;;;;;;;14.82;75.98926;95458.26;;;;
2020/06/25 05:08:06;;;;;;;5.25;4.55;;;;;;;15.31;75.56738;95455.14;;;;
2020/06/25 05:09:06;;;;;;;5.25;4.55;;;;;;;15.31;75.56738;95455.14;;;;
2020/06/25 05:10:07;;;;;;;5.25;4.55;;;;;;;15.31;75.56738;95455.14;;;;
2020/06/25 05:11:08;;;;;;;5.25;4.55;;;;;;;15.31;75.56738;95455.14;;;;
2020/06/25 05:12:08;;;;;;;5.25;4.55;;;;;;;15.31;75.56738;95455.14;;;;
2020/06/25 05:13:09;;;;;;;5.25;4.55;;;;;;;15.31;75.56738;95455.14;;;;
2020/06/25 05:14:09;;;;;;;5.25;4.55;;;;;;;15.31;75.56738;95455.14;;;;
2020/06/25 05:15:10;;;;;;;5.25;4.55;;;;;;;15.31;75.56738;95455.14;;;;
2020/06/25 05:16:10;;;;;;;5.25;4.55;;;;;;;15.31;75.56738;95455.14;;;;
2020/06/25 05:17:11;;;;;;;5.25;4.55;;;;;;;15.31;75.56738;95455.14;;;;
2020/06/25 05:18:11;;;;;;;4.9;4.199999;;;;;;;16.09;74.88672;95453.45;;;;
2020/06/25 05:19:12;;;;;;;4.9;4.199999;;;;;;;16.09;74.88672;95453.45;;;;
2020/06/25 05:20:12;;;;;;;4.9;4.199999;;;;;;;16.09;74.88672;95453.45;;;;
2020/06/25 05:21:13;;;;;;;4.9;4.199999;;;;;;;16.09;74.88672;95453.45;;;;
2020/06/25 05:22:13;;;;;;;4.9;4.199999;;;;;;;16.09;74.88672;95453.45;;;;
2020/06/25 05:23:14;;;;;;;4.9;4.199999;;;;;;;16.09;74.88672;95453.45;;;;
2020/06/25 05:24:14;;;;;;;4.9;4.199999;;;;;;;16.09;74.88672;95453.45;;;;
2020/06/25 05:25:15;;;;;;;4.9;4.199999;;;;;;;16.09;74.88672;95453.45;;;;
2020/06/25 05:26:15;;;;;;;4.9;4.199999;;;;;;;16.09;74.88672;95453.45;;;;
2020/06/25 05:27:16;;;;;;;4.9;4.199999;;;;;;;16.09;74.88672;95453.45;;;;
2020/06/25 05:28:16;;;;;;;4.9;4.199999;;;;;;;16.09;74.88672;95453.45;;;;
2020/06/25 05:29:17;;;;;;;7.799999;4.649999;;;;;;;16.84;73.55957;95460.94;;;;
2020/06/25 05:30:17;;;;;;;7.799999;4.649999;;;;;;;16.84;73.55957;95460.94;;;;
2020/06/25 05:31:18;;;;;;;7.799999;4.649999;;;;;;;16.84;73.55957;95460.94;;;;
2020/06/25 05:32:18;;;;;;;7.799999;4.649999;;;;;;;16.84;73.55957;95460.94;;;;
2020/06/25 05:33:19;;;;;;;7.799999;4.649999;;;;;;;16.84;73.55957;95460.94;;;;
2020/06/25 05:34:19;;;;;;;7.799999;4.649999;;;;;;;16.84;73.55957;95460.94;;;;
2020/06/25 05:35:21;;;;;;;7.799999;4.649999;;;;;;;16.84;73.55957;95460.94;;;;
2020/06/25 05:36:24;;;;;;;7.799999;4.649999;;;;;;;16.84;73.55957;95460.94;;;;
2020/06/25 05:37:25;;;;;;;7.799999;4.649999;;;;;;;16.84;73.55957;95460.94;;;;
2020/06/25 05:38:26;;;;;;;7.799999;4.649999;;;;;;;16.84;73.55957;95460.94;;;;
2020/06/25 05:39:27;;;;;;;4.699999;4.05;;;;;;;16.85;73.30078;95435.32;;;;
2020/06/25 05:40:27;;;;;;;4.699999;4.05;;;;;;;16.85;73.30078;95435.32;;;;
2020/06/25 05:41:28;;;;;;;4.699999;4.05;;;;;;;16.85;73.30078;95435.32;;;;
2020/06/25 05:42:28;;;;;;;4.699999;4.05;;;;;;;16.85;73.30078;95435.32;;;;
2020/06/25 05:43:29;;;;;;;4.699999;4.05;;;;;;;16.85;73.30078;95435.32;;;;